Time;durP1;ratioP1;P1;durP2;ratioP2;P2;SDS_P1;SDS_P2;PMS_P1;PMS_P2;Temp;Humidity;BMP_temperature;BMP_pressure;BME280_temperature;BME280_humidity;BME280_pressure;Samples;Min_cycle;Max_cycle;Signal;HPM_P1;HPM_P2
2021/07/25 00:00:49;;;;;;;12.23;9.88;;;20.90;74.20;;;;;;4994247;28;20046;-80
2021/07/25 00:03:14;;;;;;;13.13;10.85;;;20.90;74.30;;;;;;4994310;28;20477;-80
2021/07/25 00:05:41;;;;;;;14.07;10.95;;;20.90;74.40;;;;;;4993389;28;20588;-78
2021/07/25 00:08:13;;;;;;;11.52;9.32;;;20.80;74.60;;;;;;4993905;28;20022;-78
2021/07/25 00:10:47;;;;;;;10.77;9.18;;;20.80;74.70;;;;;;4993924;28;20515;-78
2021/07/25 00:13:15;;;;;;;13.88;10.27;;;20.80;74.80;;;;;;4993576;28;20059;-78
2021/07/25 00:15:41;;;;;;;13.27;10.52;;;20.80;74.90;;;;;;4993844;28;20042;-78
2021/07/25 00:18:07;;;;;;;12.93;11.10;;;20.80;74.90;;;;;;4991714;28;20076;-78
2021/07/25 00:20:33;;;;;;;14.07;11.60;;;20.80;75.00;;;;;;4993900;28;20026;-79
2021/07/25 00:22:59;;;;;;;17.15;14.10;;;20.70;75.10;;;;;;4981949;28;20034;-78
2021/07/25 00:25:25;;;;;;;13.25;11.27;;;20.70;75.60;;;;;;4993999;28;20030;-78
2021/07/25 00:27:54;;;;;;;13.30;10.00;;;20.70;75.60;;;;;;4987135;28;20034;-80
2021/07/25 00:30:20;;;;;;;14.13;12.25;;;20.70;75.60;;;;;;4988905;28;20108;-80
2021/07/25 00:32:46;;;;;;;13.52;11.10;;;20.60;75.60;;;;;;4994069;28;20022;-80
2021/07/25 00:35:13;;;;;;;11.73;8.68;;;20.60;75.70;;;;;;4990522;28;20043;-78
2021/07/25 00:37:42;;;;;;;12.15;10.27;;;20.70;75.80;;;;;;4993580;28;20057;-79
2021/07/25 00:40:12;;;;;;;11.45;9.65;;;20.60;75.70;;;;;;4992627;28;20026;-79
2021/07/25 00:42:39;;;;;;;11.55;9.85;;;20.70;75.80;;;;;;4992654;28;20120;-79
2021/07/25 00:45:06;;;;;;;12.15;9.70;;;20.60;75.80;;;;;;4993707;28;20606;-79
2021/07/25 00:47:33;;;;;;;13.98;9.68;;;20.70;75.80;;;;;;4993151;28;20052;-79
2021/07/25 00:50:00;;;;;;;11.85;8.52;;;20.70;75.70;;;;;;4993365;28;20045;-79
2021/07/25 00:52:27;;;;;;;14.77;12.55;;;20.70;75.70;;;;;;4993289;28;20038;-79
2021/07/25 00:54:53;;;;;;;12.50;10.88;;;20.60;75.90;;;;;;4993282;28;20034;-79
2021/07/25 00:57:18;;;;;;;15.27;12.63;;;20.60;76.10;;;;;;4993145;28;20066;-79
2021/07/25 00:59:43;;;;;;;14.00;11.85;;;20.60;76.30;;;;;;4993425;28;20485;-79
2021/07/25 01:02:09;;;;;;;14.05;12.07;;;20.50;76.30;;;;;;4992840;28;20026;-79
2021/07/25 01:05:01;;;;;;;14.98;12.27;;;20.50;76.40;;;;;;4993916;28;20500;-79
2021/07/25 01:07:34;;;;;;;14.25;10.77;;;20.50;77.10;;;;;;4983206;28;20054;-79
2021/07/25 01:10:04;;;;;;;14.15;11.55;;;20.50;76.50;;;;;;4993453;28;20537;-78
2021/07/25 01:12:51;;;;;;;15.85;13.00;;;20.50;76.70;;;;;;4992757;28;20034;-78
2021/07/25 01:15:23;;;;;;;12.32;8.88;;;20.40;76.80;;;;;;4992986;28;20109;-79
2021/07/25 01:17:49;;;;;;;;;;;20.40;76.70;;;;;;4993176;28;20042;-80
2021/07/25 01:20:15;;;;;;;10.10;8.40;;;20.40;76.50;;;;;;4993261;28;19997;-79
2021/07/25 01:22:44;;;;;;;11.52;9.82;;;20.40;76.50;;;;;;4992623;28;20510;-79
2021/07/25 01:25:11;;;;;;;10.77;8.52;;;20.50;76.60;;;;;;4986187;28;20113;-79
2021/07/25 01:28:04;;;;;;;9.63;8.38;;;20.50;76.50;;;;;;4990507;28;20018;-78
2021/07/25 01:30:36;;;;;;;11.07;8.85;;;20.50;76.50;;;;;;4987798;28;20066;-80
2021/07/25 01:33:07;;;;;;;12.85;9.55;;;20.50;76.40;;;;;;4992662;28;20085;-79
2021/07/25 01:35:34;;;;;;;12.20;9.30;;;20.50;76.30;;;;;;4992501;28;20026;-79
2021/07/25 01:38:00;;;;;;;10.45;9.25;;;20.50;76.30;;;;;;4992421;28;20125;-79
2021/07/25 01:40:26;;;;;;;10.82;9.02;;;20.50;76.30;;;;;;4991571;28;20125;-79
2021/07/25 01:42:53;;;;;;;11.35;9.02;;;20.50;76.30;;;;;;4992718;28;20026;-79
2021/07/25 01:45:20;;;;;;;11.20;8.45;;;20.50;76.30;;;;;;4992347;28;20413;-79
2021/07/25 01:47:46;;;;;;;10.00;8.23;;;20.50;76.30;;;;;;4992303;28;20030;-78
2021/07/25 01:50:13;;;;;;;8.00;6.35;;;20.50;76.30;;;;;;4992725;28;20495;-79
2021/07/25 01:52:39;;;;;;;10.98;8.30;;;20.50;76.30;;;;;;4991424;28;20509;-79
2021/07/25 01:55:05;;;;;;;9.70;7.95;;;20.50;76.40;;;;;;4991749;28;20034;-79
2021/07/25 01:57:31;;;;;;;11.05;8.20;;;20.40;76.40;;;;;;4991371;28;20114;-79
2021/07/25 01:59:56;;;;;;;13.15;11.23;;;20.50;76.50;;;;;;4992649;28;20039;-79
2021/07/25 02:02:22;;;;;;;13.68;12.15;;;20.40;76.60;;;;;;4991240;28;20441;-79
2021/07/25 02:04:47;;;;;;;20.33;17.67;;;20.40;76.90;;;;;;4992405;28;20026;-79
2021/07/25 02:07:13;;;;;;;20.67;16.38;;;20.30;77.60;;;;;;4991413;28;20065;-78
2021/07/25 02:09:39;;;;;;;15.68;13.13;;;20.20;78.10;;;;;;4992614;28;20026;-79
2021/07/25 02:12:08;;;;;;;15.70;12.93;;;20.10;78.10;;;;;;4991389;28;20050;-79
2021/07/25 02:14:35;;;;;;;14.32;12.00;;;20.10;78.10;;;;;;4991488;28;20023;-79
2021/07/25 02:17:01;;;;;;;18.08;13.95;;;20.10;78.10;;;;;;4991486;28;20038;-80
2021/07/25 02:19:27;;;;;;;18.05;13.70;;;20.10;78.40;;;;;;4991926;28;20367;-78
2021/07/25 02:21:53;;;;;;;14.38;12.32;;;20.00;78.50;;;;;;4991717;28;20125;-79
2021/07/25 02:24:20;;;;;;;14.95;12.15;;;20.00;78.40;;;;;;4990205;28;20031;-78
2021/07/25 02:26:46;;;;;;;16.77;13.30;;;20.00;78.50;;;;;;4990618;28;20110;-79
2021/07/25 02:29:12;;;;;;;13.85;11.82;;;20.00;78.60;;;;;;4983432;28;20027;-79
2021/07/25 02:31:37;;;;;;;12.20;10.50;;;20.00;78.60;;;;;;4987855;28;20026;-79
2021/07/25 02:34:03;;;;;;;13.73;11.02;;;20.00;78.60;;;;;;4991682;28;20030;-78
2021/07/25 02:36:29;;;;;;;18.83;15.55;;;20.10;78.60;;;;;;4991035;28;20026;-79
2021/07/25 02:38:54;;;;;;;13.93;12.02;;;20.00;78.80;;;;;;4991866;28;20115;-79
2021/07/25 02:41:20;;;;;;;12.95;10.82;;;20.00;78.90;;;;;;4990896;28;20032;-79
2021/07/25 02:43:46;;;;;;;13.82;11.38;;;20.00;78.80;;;;;;4989134;28;20018;-79
2021/07/25 02:46:11;;;;;;;18.10;14.13;;;20.00;78.80;;;;;;4991368;28;20050;-79
2021/07/25 02:48:37;;;;;;;16.83;13.75;;;19.90;79.40;;;;;;4991063;28;20519;-79
2021/07/25 02:51:02;;;;;;;17.95;14.43;;;19.80;79.40;;;;;;4990984;28;20081;-79
2021/07/25 02:53:28;;;;;;;15.60;12.20;;;19.80;79.50;;;;;;4990818;28;20445;-79
2021/07/25 02:55:53;;;;;;;12.57;10.63;;;19.80;79.60;;;;;;4991161;28;20030;-79
2021/07/25 02:58:19;;;;;;;15.88;13.50;;;19.80;79.60;;;;;;4990972;28;20022;-79
2021/07/25 03:00:45;;;;;;;17.17;14.15;;;19.80;79.80;;;;;;4990061;28;20046;-78
2021/07/25 03:03:11;;;;;;;16.20;13.40;;;19.80;79.90;;;;;;4990747;28;20025;-78
2021/07/25 03:05:36;;;;;;;15.70;12.82;;;19.80;80.10;;;;;;4990807;28;20024;-79
2021/07/25 03:08:02;;;;;;;13.75;11.18;;;19.80;80.00;;;;;;4991843;28;20030;-81
2021/07/25 03:10:27;;;;;;;22.52;18.20;;;19.80;80.00;;;;;;4990564;28;20531;-79
2021/07/25 03:12:53;;;;;;;17.27;14.20;;;19.80;80.30;;;;;;4991338;28;20026;-79
2021/07/25 03:15:18;;;;;;;21.45;16.90;;;19.70;80.40;;;;;;4990471;28;20035;-79
2021/07/25 03:17:44;;;;;;;21.23;17.92;;;19.70;80.60;;;;;;4991445;28;20041;-78
2021/07/25 03:20:10;;;;;;;17.45;14.55;;;19.60;80.90;;;;;;4990516;28;20034;-78
2021/07/25 03:22:36;;;;;;;19.25;16.02;;;19.60;81.00;;;;;;4990831;28;20026;-79
2021/07/25 03:25:02;;;;;;;17.70;14.30;;;19.50;81.20;;;;;;4990705;28;20057;-79
2021/07/25 03:27:28;;;;;;;21.00;16.30;;;19.50;81.20;;;;;;4991132;28;20058;-78
2021/07/25 03:29:53;;;;;;;21.33;17.52;;;19.50;81.40;;;;;;4987227;28;20419;-78
2021/07/25 03:32:19;;;;;;;17.85;14.90;;;19.40;81.70;;;;;;4990817;28;20054;-78
2021/07/25 03:34:46;;;;;;;22.88;19.42;;;19.40;81.80;;;;;;4991396;28;20484;-79
2021/07/25 03:37:12;;;;;;;17.98;15.57;;;19.30;82.00;;;;;;4991426;28;20557;-78
2021/07/25 03:39:38;;;;;;;15.07;11.32;;;19.30;82.00;;;;;;4990585;28;20109;-78
2021/07/25 03:42:05;;;;;;;13.13;10.82;;;19.40;81.90;;;;;;4990830;28;20118;-79
2021/07/25 03:44:30;;;;;;;12.35;10.45;;;19.40;81.70;;;;;;4990988;28;20034;-79
2021/07/25 03:46:56;;;;;;;13.80;11.45;;;19.40;81.60;;;;;;4990512;28;20026;-78
2021/07/25 03:49:22;;;;;;;14.35;11.32;;;19.40;81.50;;;;;;4990446;28;20026;-77
2021/07/25 03:51:47;;;;;;;12.73;10.52;;;19.50;81.40;;;;;;4990324;28;20033;-78
2021/07/25 03:54:13;;;;;;;12.52;10.02;;;19.50;81.30;;;;;;4993331;28;20037;-78
2021/07/25 03:56:39;;;;;;;10.80;9.50;;;19.50;81.20;;;;;;4996110;28;20461;-78
2021/07/25 03:59:04;;;;;;;11.43;9.68;;;19.60;81.00;;;;;;4994307;28;20061;-78
2021/07/25 04:01:30;;;;;;;12.93;10.98;;;19.60;80.80;;;;;;4994282;28;20031;-78
2021/07/25 04:03:56;;;;;;;20.55;17.15;;;19.60;80.70;;;;;;4993362;28;20110;-78
2021/07/25 04:06:21;;;;;;;21.50;17.30;;;19.50;80.90;;;;;;4994793;28;20053;-78
2021/07/25 04:08:47;;;;;;;18.88;15.82;;;19.40;81.10;;;;;;4993746;28;20125;-78
2021/07/25 04:11:17;;;;;;;15.55;12.35;;;19.40;81.60;;;;;;4994323;28;20076;-79
2021/07/25 04:13:43;;;;;;;15.70;12.73;;;19.40;81.50;;;;;;4992293;28;20507;-78
2021/07/25 04:16:08;;;;;;;11.88;9.45;;;19.40;81.40;;;;;;4994621;28;20030;-79
2021/07/25 04:18:34;;;;;;;15.50;13.38;;;19.40;81.30;;;;;;4994296;28;20027;-79
2021/07/25 04:20:59;;;;;;;23.23;17.88;;;19.40;81.40;;;;;;4992407;28;20495;-80
2021/07/25 04:23:24;;;;;;;21.20;16.95;;;19.30;81.80;;;;;;4990005;28;20543;-79
2021/07/25 04:25:50;;;;;;;19.88;16.08;;;19.30;82.20;;;;;;4989001;28;20042;-78
2021/07/25 04:28:16;;;;;;;15.23;12.45;;;19.30;82.90;;;;;;4982974;28;20026;-78
2021/07/25 04:30:42;;;;;;;15.85;12.52;;;19.30;82.20;;;;;;4989837;28;20031;-78
2021/07/25 04:33:08;;;;;;;14.70;12.93;;;19.30;82.10;;;;;;4990202;28;20022;-79
2021/07/25 04:35:37;;;;;;;14.57;11.73;;;19.30;82.00;;;;;;4988351;28;20065;-79
2021/07/25 04:38:03;;;;;;;15.00;11.80;;;19.30;81.90;;;;;;4990067;28;20041;-78
2021/07/25 04:40:29;;;;;;;17.90;13.50;;;19.40;81.70;;;;;;4993146;28;20030;-78
2021/07/25 04:42:57;;;;;;;14.40;12.48;;;19.40;81.60;;;;;;4993278;28;20210;-78
2021/07/25 04:45:51;;;;;;;15.65;12.73;;;19.40;81.50;;;;;;4992405;28;20417;-79
2021/07/25 04:48:30;;;;;;;11.73;9.82;;;19.40;81.60;;;;;;4992323;28;20508;-79
2021/07/25 04:51:05;;;;;;;11.15;9.40;;;19.50;81.40;;;;;;4993174;28;20026;-78
2021/07/25 04:53:39;;;;;;;12.65;10.40;;;19.60;81.10;;;;;;4993373;28;20022;-79
2021/07/25 04:56:06;;;;;;;10.82;8.95;;;19.70;81.00;;;;;;4993013;28;20109;-79
2021/07/25 04:58:51;;;;;;;15.60;12.93;;;19.80;80.70;;;;;;4993183;28;20034;-79
2021/07/25 05:01:23;;;;;;;13.43;10.85;;;19.90;80.60;;;;;;4992916;28;20029;-78
2021/07/25 05:03:49;;;;;;;12.50;9.90;;;19.90;80.30;;;;;;4993098;28;20030;-79
2021/07/25 05:06:15;;;;;;;14.27;12.00;;;20.00;80.20;;;;;;4993346;28;20030;-79
2021/07/25 05:08:42;;;;;;;16.73;14.05;;;20.00;80.00;;;;;;4991754;28;20038;-78
2021/07/25 05:11:20;;;;;;;13.65;11.40;;;20.00;80.00;;;;;;4981578;28;20030;-79
2021/07/25 05:13:48;;;;;;;13.63;11.15;;;19.90;80.10;;;;;;4992425;28;20025;-78
2021/07/25 05:16:32;;;;;;;15.13;12.57;;;20.00;80.10;;;;;;4994878;28;20042;-79
2021/07/25 05:19:10;;;;;;;12.82;10.77;;;20.00;80.00;;;;;;4992270;28;20485;-79
2021/07/25 05:21:42;;;;;;;16.17;10.85;;;20.10;79.90;;;;;;4992539;28;20030;-79
2021/07/25 05:24:08;;;;;;;10.60;8.93;;;20.00;79.60;;;;;;4992779;28;20544;-79
2021/07/25 05:26:35;;;;;;;14.25;11.40;;;20.20;79.30;;;;;;4988329;28;20199;-78
2021/07/25 05:29:02;;;;;;;12.55;10.75;;;20.20;78.80;;;;;;4985228;28;20081;-78
2021/07/25 05:31:32;;;;;;;9.27;7.78;;;20.40;78.70;;;;;;4992492;28;20041;-78
2021/07/25 05:33:59;;;;;;;14.70;10.45;;;21.00;77.50;;;;;;4991191;28;20018;-79
2021/07/25 05:36:25;;;;;;;9.85;8.13;;;21.60;75.30;;;;;;4999648;28;20424;-79
2021/07/25 05:38:52;;;;;;;7.88;6.63;;;22.40;73.60;;;;;;4996856;28;20029;-78
2021/07/25 05:41:18;;;;;;;8.48;6.85;;;23.00;72.10;;;;;;4990720;28;20026;-79
2021/07/25 05:43:43;;;;;;;7.80;6.78;;;23.50;69.90;;;;;;4991639;28;20101;-79
2021/07/25 05:46:09;;;;;;;9.48;7.90;;;23.90;68.50;;;;;;4991890;28;20085;-80
2021/07/25 05:48:34;;;;;;;11.77;10.23;;;24.30;67.20;;;;;;4993309;28;20038;-80
2021/07/25 05:51:02;;;;;;;11.70;8.43;;;24.50;65.60;;;;;;4991570;28;20031;-78
2021/07/25 05:53:29;;;;;;;10.82;8.32;;;24.70;65.30;;;;;;5007070;28;20041;-78
2021/07/25 05:55:54;;;;;;;9.10;6.57;;;25.00;64.30;;;;;;4999727;28;20126;-78
2021/07/25 05:58:20;;;;;;;10.80;8.18;;;25.40;63.70;;;;;;4992054;28;20042;-78
2021/07/25 06:00:45;;;;;;;7.55;5.75;;;25.50;62.30;;;;;;4991618;28;20030;-78
2021/07/25 06:03:12;;;;;;;6.53;4.88;;;25.60;62.50;;;;;;4996112;28;20035;-78
2021/07/25 06:05:38;;;;;;;7.22;6.50;;;26.10;61.90;;;;;;4992592;28;20015;-79
2021/07/25 06:08:06;;;;;;;9.05;6.95;;;26.20;60.60;;;;;;4991661;28;20041;-80
2021/07/25 06:10:33;;;;;;;7.15;5.40;;;26.30;60.00;;;;;;4990622;28;20109;-80
2021/07/25 06:13:00;;;;;;;7.00;5.60;;;26.00;60.30;;;;;;4991369;28;20046;-80
2021/07/25 06:15:27;;;;;;;8.43;7.10;;;26.10;60.60;;;;;;4986542;28;20381;-80
2021/07/25 06:17:53;;;;;;;8.88;7.57;;;25.90;60.10;;;;;;4983638;28;20048;-80
2021/07/25 06:20:19;;;;;;;7.32;5.43;;;25.20;60.80;;;;;;4984297;28;20057;-80
2021/07/25 06:22:51;;;;;;;6.13;4.88;;;24.90;62.10;;;;;;4990912;28;20022;-80
2021/07/25 06:25:22;;;;;;;6.57;5.82;;;24.80;62.90;;;;;;4989414;28;20034;-80
2021/07/25 06:27:51;;;;;;;5.50;4.38;;;24.50;63.30;;;;;;4990486;28;20497;-80
2021/07/25 06:30:17;;;;;;;6.00;4.50;;;24.20;64.50;;;;;;4989991;28;20358;-80
2021/07/25 06:33:00;;;;;;;6.38;5.40;;;24.10;64.90;;;;;;4990830;28;20021;-80
2021/07/25 06:35:31;;;;;;;6.45;5.20;;;23.90;65.20;;;;;;4989566;28;20386;-79
2021/07/25 06:38:01;;;;;;;5.55;4.82;;;23.70;65.90;;;;;;4991142;28;20100;-80
2021/07/25 06:40:28;;;;;;;7.68;4.80;;;23.50;66.20;;;;;;4990888;28;20046;-80
2021/07/25 06:42:55;;;;;;;5.35;4.30;;;23.30;66.90;;;;;;4991433;28;20101;-80
2021/07/25 06:45:21;;;;;;;7.72;5.40;;;23.10;67.50;;;;;;4989895;28;20069;-80
2021/07/25 06:47:48;;;;;;;6.22;4.47;;;23.00;67.90;;;;;;4991314;28;20488;-81
2021/07/25 06:50:15;;;;;;;7.80;5.10;;;23.20;68.00;;;;;;4991601;28;20041;-80
2021/07/25 06:52:41;;;;;;;7.03;5.60;;;23.30;67.60;;;;;;4990398;28;20026;-80
2021/07/25 06:55:09;;;;;;;5.78;4.85;;;23.40;67.40;;;;;;4990538;28;20030;-80
2021/07/25 06:57:35;;;;;;;8.88;6.20;;;23.40;67.70;;;;;;4991073;28;20492;-80
2021/07/25 07:00:02;;;;;;;5.30;4.30;;;23.40;67.10;;;;;;4991066;28;20034;-79
2021/07/25 07:02:27;;;;;;;6.18;4.90;;;23.50;67.40;;;;;;4990352;28;20026;-79
2021/07/25 07:04:53;;;;;;;6.53;4.78;;;23.70;67.30;;;;;;4987694;28;20027;-80
2021/07/25 07:07:19;;;;;;;6.10;4.05;;;23.80;67.20;;;;;;4988984;28;20026;-79
2021/07/25 07:09:44;;;;;;;6.32;4.72;;;23.90;66.90;;;;;;4989327;28;20030;-80
2021/07/25 07:12:10;;;;;;;4.30;3.40;;;23.90;66.50;;;;;;4989172;28;20117;-79
2021/07/25 07:14:35;;;;;;;4.85;3.50;;;23.90;67.10;;;;;;4989175;28;20025;-79
2021/07/25 07:17:01;;;;;;;5.35;3.92;;;23.90;66.10;;;;;;4985588;28;20141;-80
2021/07/25 07:19:26;;;;;;;6.75;5.07;;;24.10;66.10;;;;;;4990930;28;20034;-79
2021/07/25 07:21:52;;;;;;;9.32;5.30;;;24.20;65.50;;;;;;4989910;28;20034;-81
2021/07/25 07:24:17;;;;;;;6.05;4.45;;;24.20;65.10;;;;;;4987382;28;20026;-80
2021/07/25 07:26:43;;;;;;;5.60;4.30;;;24.20;65.40;;;;;;4980664;28;20027;-80
2021/07/25 07:29:08;;;;;;;4.68;3.92;;;24.30;65.40;;;;;;4989660;28;20199;-79
2021/07/25 07:31:34;;;;;;;3.40;3.03;;;24.50;65.20;;;;;;4986795;28;20034;-78
2021/07/25 07:33:59;;;;;;;6.47;5.20;;;24.60;65.10;;;;;;4982863;28;20034;-77
2021/07/25 07:36:25;;;;;;;4.47;3.90;;;24.60;64.30;;;;;;4986831;28;20076;-78
2021/07/25 07:38:50;;;;;;;5.78;3.95;;;24.70;64.50;;;;;;4989429;28;20057;-79
2021/07/25 07:41:17;;;;;;;5.22;4.50;;;24.80;64.50;;;;;;4986931;28;20019;-79
2021/07/25 07:43:43;;;;;;;4.13;3.00;;;24.90;64.00;;;;;;4984521;28;20085;-79
2021/07/25 07:46:08;;;;;;;6.78;5.30;;;24.90;64.00;;;;;;4986890;28;20030;-79
2021/07/25 07:48:34;;;;;;;6.43;4.85;;;24.80;63.60;;;;;;4985576;28;20441;-79
2021/07/25 07:50:59;;;;;;;6.70;4.57;;;24.80;63.80;;;;;;4983433;28;20026;-79
2021/07/25 07:53:25;;;;;;;4.63;3.63;;;24.90;63.60;;;;;;4988094;28;20485;-79
2021/07/25 07:55:51;;;;;;;3.55;2.83;;;25.00;63.70;;;;;;4985225;28;20054;-80
2021/07/25 07:58:16;;;;;;;5.53;3.80;;;25.20;63.60;;;;;;4987356;28;20460;-79
2021/07/25 08:00:42;;;;;;;4.38;3.15;;;25.40;62.90;;;;;;4989618;28;20025;-78
2021/07/25 08:03:07;;;;;;;5.32;3.97;;;25.50;62.70;;;;;;4987321;28;20026;-78
2021/07/25 08:05:33;;;;;;;5.35;3.20;;;25.50;62.00;;;;;;4987457;28;20018;-79
2021/07/25 08:07:59;;;;;;;6.05;4.20;;;25.60;62.00;;;;;;4988521;28;20038;-79
2021/07/25 08:10:24;;;;;;;6.13;3.85;;;25.60;61.10;;;;;;4987796;28;20018;-80
2021/07/25 08:12:50;;;;;;;5.35;3.65;;;25.70;61.30;;;;;;4987311;28;20120;-79
2021/07/25 08:15:18;;;;;;;3.67;2.88;;;25.70;60.80;;;;;;4983944;28;20026;-78
2021/07/25 08:17:44;;;;;;;3.92;2.60;;;25.70;60.50;;;;;;4983592;28;20038;-79
2021/07/25 08:20:11;;;;;;;5.13;2.85;;;25.70;60.50;;;;;;4986891;28;20485;-78
2021/07/25 08:22:37;;;;;;;5.65;3.03;;;25.90;60.50;;;;;;4984972;28;20111;-80
2021/07/25 08:25:04;;;;;;;4.53;3.15;;;25.90;60.60;;;;;;4986080;28;20034;-79
2021/07/25 08:27:30;;;;;;;3.22;2.47;;;25.90;59.60;;;;;;4983489;28;20474;-80
2021/07/25 08:29:56;;;;;;;3.22;2.65;;;26.00;60.00;;;;;;4985935;28;20072;-78
2021/07/25 08:32:21;;;;;;;3.53;2.97;;;26.20;60.00;;;;;;4983946;28;20053;-78
2021/07/25 08:34:47;;;;;;;5.07;2.67;;;26.30;59.60;;;;;;4984486;28;20507;-78
2021/07/25 08:37:13;;;;;;;5.05;4.20;;;26.40;59.40;;;;;;4985597;28;20045;-78
2021/07/25 08:39:38;;;;;;;4.03;3.30;;;26.50;58.70;;;;;;4985319;28;20174;-78
2021/07/25 08:42:08;;;;;;;4.78;2.80;;;26.50;58.90;;;;;;4987059;28;20442;-78
2021/07/25 08:44:56;;;;;;;3.28;2.80;;;26.50;59.10;;;;;;4983932;28;20473;-78
2021/07/25 08:47:36;;;;;;;4.40;2.80;;;26.70;59.10;;;;;;4987222;28;20030;-78
2021/07/25 08:50:27;;;;;;;5.47;4.28;;;26.80;58.70;;;;;;4987703;28;20065;-78
2021/07/25 08:52:54;;;;;;;4.65;3.38;;;26.70;57.60;;;;;;4987319;28;20021;-79
2021/07/25 08:55:21;;;;;;;4.40;3.00;;;26.50;58.00;;;;;;4987249;28;20114;-79
2021/07/25 08:57:50;;;;;;;3.17;2.70;;;26.40;58.40;;;;;;4986552;28;20069;-78
2021/07/25 09:00:18;;;;;;;6.70;3.05;;;26.30;58.80;;;;;;4984266;28;20048;-79
2021/07/25 09:02:44;;;;;;;2.80;2.50;;;26.30;58.90;;;;;;4989305;28;20374;-80
2021/07/25 09:05:10;;;;;;;2.72;2.42;;;26.50;58.80;;;;;;4986304;28;20034;-79
2021/07/25 09:07:40;;;;;;;3.78;2.80;;;26.60;58.80;;;;;;4983727;28;20014;-80
2021/07/25 09:10:17;;;;;;;2.65;2.45;;;26.70;58.70;;;;;;4982814;28;20524;-81
2021/07/25 09:12:44;;;;;;;3.30;2.80;;;26.70;58.50;;;;;;4986242;28;20018;-79
2021/07/25 09:15:19;;;;;;;2.50;2.20;;;26.80;58.40;;;;;;4988671;28;20065;-80
2021/07/25 09:18:13;;;;;;;4.65;3.00;;;27.00;58.50;;;;;;4982406;28;20042;-80
2021/07/25 09:20:43;;;;;;;3.22;2.90;;;27.00;58.20;;;;;;4982095;28;20039;-80
2021/07/25 09:23:14;;;;;;;6.57;3.75;;;27.00;58.10;;;;;;4980877;28;20022;-80
2021/07/25 09:25:43;;;;;;;3.20;2.77;;;27.00;57.50;;;;;;4975659;28;20065;-80
2021/07/25 09:28:12;;;;;;;3.50;3.00;;;26.90;58.10;;;;;;5301202;23;20055;-79
2021/07/25 09:30:38;;;;;;;3.85;3.08;;;26.90;58.10;;;;;;4976292;28;20050;-78
2021/07/25 09:33:20;;;;;;;3.40;2.80;;;27.00;58.10;;;;;;4979735;28;20074;-77
2021/07/25 09:35:46;;;;;;;;;;;27.20;57.80;;;;;;4977846;28;20085;-78
2021/07/25 09:38:14;;;;;;;3.80;3.00;;;27.30;57.90;;;;;;4974606;28;19910;-78
2021/07/25 09:40:42;;;;;;;4.05;3.33;;;27.30;57.40;;;;;;4982867;28;20027;-80
2021/07/25 09:43:19;;;;;;;3.50;2.90;;;27.20;57.00;;;;;;4983711;28;20038;-78
2021/07/25 09:45:53;;;;;;;3.67;2.80;;;27.20;57.10;;;;;;4976683;28;20105;-81
2021/07/25 09:48:28;;;;;;;3.75;2.63;;;27.30;57.20;;;;;;4988440;28;20065;-77
2021/07/25 09:50:57;;;;;;;4.38;3.70;;;27.40;57.00;;;;;;4983996;28;20019;-77
2021/07/25 09:53:22;;;;;;;3.53;2.92;;;27.40;56.50;;;;;;4978648;28;20026;-76
2021/07/25 09:55:52;;;;;;;3.83;3.10;;;27.50;56.70;;;;;;4971625;28;20568;-76
2021/07/25 09:58:31;;;;;;;4.30;3.03;;;27.60;56.50;;;;;;4981918;28;20030;-77
2021/07/25 10:00:57;;;;;;;4.47;2.92;;;27.60;56.40;;;;;;4973193;28;20039;-79
2021/07/25 10:03:32;;;;;;;4.53;3.17;;;27.50;56.10;;;;;;4981417;28;20068;-78
2021/07/25 10:05:58;;;;;;;5.57;3.80;;;27.50;56.10;;;;;;4966484;28;20037;-78
2021/07/25 10:08:23;;;;;;;3.85;2.38;;;27.50;55.60;;;;;;4981088;28;20467;-77
2021/07/25 10:10:51;;;;;;;3.75;2.50;;;27.70;55.70;;;;;;4979696;28;20019;-77
2021/07/25 10:13:19;;;;;;;3.60;2.60;;;28.00;55.70;;;;;;4983043;28;20030;-80
2021/07/25 10:16:04;;;;;;;4.80;3.95;;;28.10;55.20;;;;;;4978385;28;20027;-79
2021/07/25 10:21:13;;;;;;;4.63;3.45;;;28.30;54.00;;;;;;5902940;23;20069;-82
2021/07/25 10:23:47;;;;;;;3.13;2.45;;;28.20;53.70;;;;;;4985606;28;20034;-81
2021/07/25 10:26:14;;;;;;;3.88;3.13;;;28.30;54.00;;;;;;4989647;28;20030;-81
2021/07/25 10:28:43;;;;;;;4.30;3.28;;;28.20;53.50;;;;;;4971883;28;20030;-79
2021/07/25 10:31:09;;;;;;;3.42;2.90;;;28.30;53.50;;;;;;4972600;28;20019;-78
2021/07/25 10:33:35;;;;;;;3.50;3.00;;;28.40;53.40;;;;;;4966061;28;20031;-78
2021/07/25 10:36:03;;;;;;;4.13;2.83;;;28.50;53.20;;;;;;4966872;28;20393;-81
2021/07/25 10:38:29;;;;;;;3.28;2.70;;;28.60;53.00;;;;;;4967987;28;20555;-79
2021/07/25 10:43:40;;;;;;;3.90;2.88;;;28.60;52.90;;;;;;4971195;28;20077;-79
2021/07/25 10:47:04;;;;;;;4.43;3.38;;;28.50;52.40;;;;;;4969251;28;20055;-78
2021/07/25 10:49:05;;;;;;;4.75;3.58;;;28.40;52.30;;;;;;4972119;28;20031;-78
2021/07/25 10:51:32;;;;;;;4.30;3.40;;;28.50;51.90;;;;;;4974121;28;20448;-78
2021/07/25 10:54:19;;;;;;;3.88;2.60;;;28.50;52.40;;;;;;4972279;28;20041;-77
2021/07/25 10:57:10;;;;;;;4.47;3.55;;;28.70;52.20;;;;;;4961560;28;20069;-78
2021/07/25 10:59:50;;;;;;;4.57;3.30;;;28.60;51.60;;;;;;4969948;28;20025;-77
2021/07/25 11:02:22;;;;;;;3.85;3.05;;;28.50;52.00;;;;;;4968536;28;20037;-80
2021/07/25 11:04:50;;;;;;;3.10;2.50;;;28.30;52.10;;;;;;4975672;28;20154;-78
2021/07/25 11:07:22;;;;;;;3.58;2.70;;;28.30;52.60;;;;;;4986515;28;20081;-77
2021/07/25 11:10:09;;;;;;;5.18;2.60;;;28.30;52.50;;;;;;4980055;28;20038;-77
2021/07/25 11:12:50;;;;;;;4.85;2.75;;;28.40;52.50;;;;;;4981320;28;20536;-78
2021/07/25 11:15:28;;;;;;;4.53;3.55;;;28.40;52.30;;;;;;4973219;28;20027;-78
2021/07/25 11:17:55;;;;;;;4.55;3.13;;;28.20;51.80;;;;;;4976727;28;20117;-78
2021/07/25 11:21:00;;;;;;;3.85;2.70;;;28.00;52.40;;;;;;4974552;28;20130;-78
2021/07/25 11:23:33;;;;;;;4.50;3.03;;;28.00;52.80;;;;;;4976339;28;20033;-78
2021/07/25 11:26:29;;;;;;;5.05;2.60;;;28.00;52.80;;;;;;4969662;28;20039;-78
2021/07/25 11:28:54;;;;;;;3.85;2.60;;;28.00;52.90;;;;;;4976930;28;20022;-81
2021/07/25 11:31:33;;;;;;;3.63;3.08;;;28.00;52.90;;;;;;4979860;28;20115;-81
2021/07/25 11:33:58;;;;;;;3.70;2.67;;;28.10;52.80;;;;;;4973412;28;20031;-81
2021/07/25 11:36:24;;;;;;;3.67;3.00;;;28.30;52.80;;;;;;4976423;28;20026;-78
2021/07/25 11:39:11;;;;;;;3.80;2.85;;;28.40;52.40;;;;;;4976498;28;20033;-79
2021/07/25 11:41:38;;;;;;;3.55;2.60;;;28.50;51.90;;;;;;4976565;28;20026;-78
2021/07/25 11:44:09;;;;;;;2.75;2.30;;;28.50;52.00;;;;;;4977383;28;20022;-78
2021/07/25 11:46:39;;;;;;;3.42;2.75;;;28.50;52.00;;;;;;4976632;28;20451;-78
2021/07/25 11:49:05;;;;;;;3.45;2.50;;;28.60;51.80;;;;;;4979434;28;20073;-78
2021/07/25 11:51:32;;;;;;;3.42;2.40;;;28.80;51.60;;;;;;4979090;28;20037;-78
2021/07/25 11:53:58;;;;;;;4.00;2.90;;;29.10;51.30;;;;;;4975706;28;20074;-78
2021/07/25 11:56:24;;;;;;;4.72;2.30;;;29.40;50.40;;;;;;4976291;28;20039;-79
2021/07/25 11:59:06;;;;;;;4.05;2.80;;;29.40;50.10;;;;;;4977306;28;20501;-78
2021/07/25 12:01:33;;;;;;;2.95;2.03;;;29.40;49.80;;;;;;4975496;28;20034;-79
2021/07/25 12:04:02;;;;;;;3.35;2.38;;;29.50;50.10;;;;;;4975381;28;20049;-78
2021/07/25 12:06:28;;;;;;;3.47;2.20;;;29.40;50.00;;;;;;4975943;28;20058;-75
2021/07/25 12:09:10;;;;;;;2.80;2.13;;;29.40;50.00;;;;;;4983873;28;20114;-74
2021/07/25 12:11:37;;;;;;;2.80;2.42;;;29.30;50.00;;;;;;4981618;28;20377;-76
2021/07/25 12:14:04;;;;;;;2.85;2.20;;;29.20;49.80;;;;;;4973026;28;20031;-76
2021/07/25 12:16:49;;;;;;;3.13;2.20;;;29.30;50.40;;;;;;4975361;28;20060;-75
2021/07/25 12:19:17;;;;;;;3.03;2.55;;;29.50;50.20;;;;;;4972038;28;20037;-75
2021/07/25 12:21:43;;;;;;;2.88;2.20;;;29.60;49.50;;;;;;4978937;28;20035;-75
2021/07/25 12:24:28;;;;;;;2.80;2.10;;;29.80;49.60;;;;;;4972660;28;20025;-74
2021/07/25 12:26:54;;;;;;;3.33;2.22;;;30.10;49.40;;;;;;4982996;28;20046;-74
2021/07/25 12:29:42;;;;;;;3.20;2.25;;;30.30;49.20;;;;;;4973121;28;20026;-74
2021/07/25 12:32:29;;;;;;;3.08;2.35;;;30.30;48.80;;;;;;4976219;28;20058;-75
2021/07/25 12:35:16;;;;;;;5.40;2.60;;;30.30;47.80;;;;;;4973296;28;20037;-76
2021/07/25 12:37:54;;;;;;;2.80;2.20;;;30.20;45.80;;;;;;4972337;28;20045;-76
2021/07/25 12:40:31;;;;;;;5.70;2.97;;;30.00;46.20;;;;;;4976154;28;20516;-76
2021/07/25 12:42:57;;;;;;;3.30;2.67;;;30.00;46.30;;;;;;4968716;28;20429;-75
2021/07/25 12:45:33;;;;;;;2.30;2.00;;;29.80;46.50;;;;;;4971413;28;20026;-74
2021/07/25 12:48:15;;;;;;;3.20;2.17;;;29.50;47.30;;;;;;4971931;28;20038;-74
2021/07/25 12:51:02;;;;;;;;;;;29.50;47.90;;;;;;4971546;28;20023;-74
2021/07/25 12:53:27;;;;;;;2.80;1.90;;;29.60;48.30;;;;;;4972270;28;19940;-76
2021/07/25 12:55:54;;;;;;;2.08;1.80;;;29.60;48.30;;;;;;4973219;28;20104;-75